sensor_id;sensor_type;location;lat;lon;timestamp;temperature;humidity
3566;DHT22;1797;51.844;7.684;2022-11-25T00:01:13;4.20;99.90
3566;DHT22;1797;51.844;7.684;2022-11-25T00:03:40;4.20;99.90
3566;DHT22;1797;51.844;7.684;2022-11-25T00:06:17;4.20;99.90
3566;DHT22;1797;51.844;7.684;2022-11-25T00:08:45;4.20;99.90
3566;DHT22;1797;51.844;7.684;2022-11-25T00:11:11;4.30;99.90
3566;DHT22;1797;51.844;7.684;2022-11-25T00:13:38;4.30;99.90
3566;DHT22;1797;51.844;7.684;2022-11-25T00:16:06;4.30;99.90
3566;DHT22;1797;51.844;7.684;2022-11-25T00:18:32;4.30;99.90
3566;DHT22;1797;51.844;7.684;2022-11-25T00:21:05;4.40;99.90
3566;DHT22;1797;51.844;7.684;2022-11-25T00:23:31;4.50;99.90
3566;DHT22;1797;51.844;7.684;2022-11-25T00:25:56;4.50;99.90
3566;DHT22;1797;51.844;7.684;2022-11-25T00:28:22;4.60;99.90
3566;DHT22;1797;51.844;7.684;2022-11-25T00:30:47;4.60;99.90
3566;DHT22;1797;51.844;7.684;2022-11-25T00:33:13;4.70;99.90
3566;DHT22;1797;51.844;7.684;2022-11-25T00:35:39;4.70;99.90
3566;DHT22;1797;51.844;7.684;2022-11-25T00:38:04;4.80;99.90
3566;DHT22;1797;51.844;7.684;2022-11-25T00:40:30;4.90;99.90
3566;DHT22;1797;51.844;7.684;2022-11-25T00:42:55;4.80;99.90
3566;DHT22;1797;51.844;7.684;2022-11-25T00:45:40;4.90;99.90
3566;DHT22;1797;51.844;7.684;2022-11-25T00:48:06;4.80;99.90
3566;DHT22;1797;51.844;7.684;2022-11-25T00:50:31;4.80;99.90
3566;DHT22;1797;51.844;7.684;2022-11-25T00:52:58;4.80;99.90
3566;DHT22;1797;51.844;7.684;2022-11-25T00:55:23;4.80;99.90
3566;DHT22;1797;51.844;7.684;2022-11-25T00:57:49;4.80;99.90
3566;DHT22;1797;51.844;7.684;2022-11-25T01:00:14;4.80;99.90
3566;DHT22;1797;51.844;7.684;2022-11-25T01:02:40;4.80;99.90
3566;DHT22;1797;51.844;7.684;2022-11-25T01:05:06;4.80;99.90
3566;DHT22;1797;51.844;7.684;2022-11-25T01:07:32;4.80;99.90
3566;DHT22;1797;51.844;7.684;2022-11-25T01:09:57;4.90;99.90
3566;DHT22;1797;51.844;7.684;2022-11-25T01:12:23;4.80;99.90
3566;DHT22;1797;51.844;7.684;2022-11-25T01:14:48;4.80;99.90
3566;DHT22;1797;51.844;7.684;2022-11-25T01:17:14;4.80;99.90
3566;DHT22;1797;51.844;7.684;2022-11-25T01:19:40;4.70;99.90
3566;DHT22;1797;51.844;7.684;2022-11-25T01:22:07;4.80;99.90
3566;DHT22;1797;51.844;7.684;2022-11-25T01:24:32;4.80;99.90
3566;DHT22;1797;51.844;7.684;2022-11-25T01:26:58;4.80;99.90
3566;DHT22;1797;51.844;7.684;2022-11-25T01:29:23;4.80;99.90
3566;DHT22;1797;51.844;7.684;2022-11-25T01:31:49;4.90;99.90
3566;DHT22;1797;51.844;7.684;2022-11-25T01:34:17;4.90;99.90
3566;DHT22;1797;51.844;7.684;2022-11-25T01:36:44;4.90;99.90
3566;DHT22;1797;51.844;7.684;2022-11-25T01:39:15;5.00;99.90
3566;DHT22;1797;51.844;7.684;2022-11-25T01:41:41;5.00;99.90
3566;DHT22;1797;51.844;7.684;2022-11-25T01:54:13;5.30;99.90
3566;DHT22;1797;51.844;7.684;2022-11-25T01:56:48;5.30;99.90
3566;DHT22;1797;51.844;7.684;2022-11-25T01:59:15;5.40;99.90
3566;DHT22;1797;51.844;7.684;2022-11-25T02:01:40;5.50;99.90
3566;DHT22;1797;51.844;7.684;2022-11-25T02:04:09;5.50;99.90
3566;DHT22;1797;51.844;7.684;2022-11-25T02:06:44;5.60;99.90
3566;DHT22;1797;51.844;7.684;2022-11-25T02:09:13;5.60;99.90
3566;DHT22;1797;51.844;7.684;2022-11-25T02:11:41;5.60;99.90
3566;DHT22;1797;51.844;7.684;2022-11-25T02:14:08;5.70;99.90
3566;DHT22;1797;51.844;7.684;2022-11-25T02:16:35;5.70;99.90
3566;DHT22;1797;51.844;7.684;2022-11-25T02:19:01;5.70;99.90
3566;DHT22;1797;51.844;7.684;2022-11-25T02:21:40;5.70;99.90
3566;DHT22;1797;51.844;7.684;2022-11-25T02:24:17;5.80;99.90
3566;DHT22;1797;51.844;7.684;2022-11-25T02:26:44;5.80;99.90
3566;DHT22;1797;51.844;7.684;2022-11-25T02:29:11;5.80;99.90
3566;DHT22;1797;51.844;7.684;2022-11-25T02:31:36;5.80;99.90
3566;DHT22;1797;51.844;7.684;2022-11-25T02:34:02;5.90;99.90
3566;DHT22;1797;51.844;7.684;2022-11-25T02:36:28;5.90;99.90
3566;DHT22;1797;51.844;7.684;2022-11-25T02:38:58;5.90;99.90
3566;DHT22;1797;51.844;7.684;2022-11-25T02:41:29;5.90;99.90
3566;DHT22;1797;51.844;7.684;2022-11-25T02:43:55;5.90;99.90
3566;DHT22;1797;51.844;7.684;2022-11-25T02:46:23;6.00;99.90
3566;DHT22;1797;51.844;7.684;2022-11-25T02:48:50;5.90;99.90
3566;DHT22;1797;51.844;7.684;2022-11-25T02:51:18;6.00;99.90
3566;DHT22;1797;51.844;7.684;2022-11-25T02:53:44;6.00;99.90
3566;DHT22;1797;51.844;7.684;2022-11-25T02:56:11;6.00;99.90
3566;DHT22;1797;51.844;7.684;2022-11-25T02:58:38;6.00;99.90
3566;DHT22;1797;51.844;7.684;2022-11-25T03:01:03;6.00;99.90
3566;DHT22;1797;51.844;7.684;2022-11-25T03:03:29;6.10;99.90
3566;DHT22;1797;51.844;7.684;2022-11-25T03:05:55;6.10;99.90
3566;DHT22;1797;51.844;7.684;2022-11-25T03:08:20;6.20;99.90
3566;DHT22;1797;51.844;7.684;2022-11-25T03:10:46;6.10;99.90
3566;DHT22;1797;51.844;7.684;2022-11-25T03:13:11;6.10;99.90
3566;DHT22;1797;51.844;7.684;2022-11-25T03:15:37;6.10;99.90
3566;DHT22;1797;51.844;7.684;2022-11-25T03:18:04;6.20;99.90
3566;DHT22;1797;51.844;7.684;2022-11-25T03:20:29;6.20;99.90
3566;DHT22;1797;51.844;7.684;2022-11-25T03:22:55;6.20;99.90
3566;DHT22;1797;51.844;7.684;2022-11-25T03:25:21;6.20;99.90
3566;DHT22;1797;51.844;7.684;2022-11-25T03:27:47;6.30;99.90
3566;DHT22;1797;51.844;7.684;2022-11-25T03:30:16;6.30;99.90
3566;DHT22;1797;51.844;7.684;2022-11-25T03:32:42;6.30;99.90
3566;DHT22;1797;51.844;7.684;2022-11-25T03:35:08;6.30;99.90
3566;DHT22;1797;51.844;7.684;2022-11-25T03:37:34;6.40;99.90
3566;DHT22;1797;51.844;7.684;2022-11-25T03:40:00;6.40;99.90
3566;DHT22;1797;51.844;7.684;2022-11-25T03:42:26;6.40;99.90
3566;DHT22;1797;51.844;7.684;2022-11-25T03:44:51;6.50;99.90
3566;DHT22;1797;51.844;7.684;2022-11-25T03:47:17;6.50;99.90
3566;DHT22;1797;51.844;7.684;2022-11-25T03:49:42;6.50;99.90
3566;DHT22;1797;51.844;7.684;2022-11-25T03:52:08;6.60;99.90
3566;DHT22;1797;51.844;7.684;2022-11-25T03:54:34;6.60;99.90
3566;DHT22;1797;51.844;7.684;2022-11-25T03:56:59;6.70;99.90
3566;DHT22;1797;51.844;7.684;2022-11-25T03:59:25;6.80;99.90
3566;DHT22;1797;51.844;7.684;2022-11-25T04:01:50;6.80;99.90
3566;DHT22;1797;51.844;7.684;2022-11-25T04:04:16;6.80;99.90
3566;DHT22;1797;51.844;7.684;2022-11-25T04:06:42;6.80;99.90
3566;DHT22;1797;51.844;7.684;2022-11-25T04:09:08;6.80;99.90
3566;DHT22;1797;51.844;7.684;2022-11-25T04:11:34;6.80;99.90
3566;DHT22;1797;51.844;7.684;2022-11-25T04:14:19;6.80;99.90
3566;DHT22;1797;51.844;7.684;2022-11-25T04:16:44;6.90;99.90
3566;DHT22;1797;51.844;7.684;2022-11-25T04:19:10;6.90;99.90
3566;DHT22;1797;51.844;7.684;2022-11-25T04:21:35;7.00;99.90
3566;DHT22;1797;51.844;7.684;2022-11-25T04:24:01;7.00;99.90
3566;DHT22;1797;51.844;7.684;2022-11-25T04:26:28;7.10;99.90
3566;DHT22;1797;51.844;7.684;2022-11-25T04:28:53;7.10;99.90
3566;DHT22;1797;51.844;7.684;2022-11-25T04:31:19;7.10;99.90
3566;DHT22;1797;51.844;7.684;2022-11-25T04:33:45;7.20;99.90
3566;DHT22;1797;51.844;7.684;2022-11-25T04:36:11;7.30;99.90
3566;DHT22;1797;51.844;7.684;2022-11-25T04:38:36;7.30;99.90
3566;DHT22;1797;51.844;7.684;2022-11-25T04:41:02;7.30;99.90
3566;DHT22;1797;51.844;7.684;2022-11-25T04:43:28;7.40;99.90
3566;DHT22;1797;51.844;7.684;2022-11-25T04:45:53;7.40;99.90
3566;DHT22;1797;51.844;7.684;2022-11-25T04:48:19;7.40;99.90
3566;DHT22;1797;51.844;7.684;2022-11-25T04:50:44;7.40;99.90
3566;DHT22;1797;51.844;7.684;2022-11-25T04:53:10;7.40;99.90
3566;DHT22;1797;51.844;7.684;2022-11-25T04:55:36;7.40;99.90
3566;DHT22;1797;51.844;7.684;2022-11-25T04:58:02;7.40;99.90
3566;DHT22;1797;51.844;7.684;2022-11-25T05:00:27;7.40;99.90
3566;DHT22;1797;51.844;7.684;2022-11-25T05:02:53;7.40;99.90
3566;DHT22;1797;51.844;7.684;2022-11-25T05:05:19;7.40;99.90
3566;DHT22;1797;51.844;7.684;2022-11-25T05:07:45;7.40;99.90
3566;DHT22;1797;51.844;7.684;2022-11-25T05:10:10;7.40;99.90
3566;DHT22;1797;51.844;7.684;2022-11-25T05:12:36;7.40;99.90
3566;DHT22;1797;51.844;7.684;2022-11-25T05:15:03;7.40;99.90
3566;DHT22;1797;51.844;7.684;2022-11-25T05:17:30;7.30;99.90
3566;DHT22;1797;51.844;7.684;2022-11-25T05:19:57;7.40;99.90
3566;DHT22;1797;51.844;7.684;2022-11-25T05:22:28;7.40;99.90
3566;DHT22;1797;51.844;7.684;2022-11-25T05:24:54;7.40;99.90
3566;DHT22;1797;51.844;7.684;2022-11-25T05:27:21;7.40;99.90
3566;DHT22;1797;51.844;7.684;2022-11-25T05:29:47;7.50;99.90
3566;DHT22;1797;51.844;7.684;2022-11-25T05:32:13;7.50;99.90
3566;DHT22;1797;51.844;7.684;2022-11-25T05:34:39;7.50;99.90
3566;DHT22;1797;51.844;7.684;2022-11-25T05:37:06;7.60;99.90
3566;DHT22;1797;51.844;7.684;2022-11-25T05:39:33;7.60;99.90
3566;DHT22;1797;51.844;7.684;2022-11-25T05:41:58;7.60;99.90
3566;DHT22;1797;51.844;7.684;2022-11-25T05:44:24;7.60;99.90
3566;DHT22;1797;51.844;7.684;2022-11-25T05:46:49;7.60;99.90
3566;DHT22;1797;51.844;7.684;2022-11-25T05:49:16;7.70;99.90
3566;DHT22;1797;51.844;7.684;2022-11-25T05:51:42;7.70;99.90
3566;DHT22;1797;51.844;7.684;2022-11-25T05:54:08;7.70;99.90
3566;DHT22;1797;51.844;7.684;2022-11-25T05:56:33;7.70;99.90
3566;DHT22;1797;51.844;7.684;2022-11-25T05:58:59;7.70;99.90
3566;DHT22;1797;51.844;7.684;2022-11-25T06:01:25;7.70;99.90
3566;DHT22;1797;51.844;7.684;2022-11-25T06:03:51;7.70;99.90
3566;DHT22;1797;51.844;7.684;2022-11-25T06:06:16;7.80;99.90
3566;DHT22;1797;51.844;7.684;2022-11-25T06:08:42;7.80;99.90
3566;DHT22;1797;51.844;7.684;2022-11-25T06:11:11;7.80;99.90
3566;DHT22;1797;51.844;7.684;2022-11-25T06:13:38;7.80;99.90
3566;DHT22;1797;51.844;7.684;2022-11-25T06:16:18;7.80;99.90
3566;DHT22;1797;51.844;7.684;2022-11-25T06:18:44;7.80;99.90
3566;DHT22;1797;51.844;7.684;2022-11-25T06:21:10;7.90;99.90
3566;DHT22;1797;51.844;7.684;2022-11-25T06:24:18;7.90;99.90
3566;DHT22;1797;51.844;7.684;2022-11-25T06:26:37;7.90;99.90
3566;DHT22;1797;51.844;7.684;2022-11-25T06:29:03;7.90;99.90
3566;DHT22;1797;51.844;7.684;2022-11-25T06:31:28;7.90;99.90
3566;DHT22;1797;51.844;7.684;2022-11-25T06:33:54;8.00;99.90
3566;DHT22;1797;51.844;7.684;2022-11-25T06:36:21;8.00;99.90
3566;DHT22;1797;51.844;7.684;2022-11-25T06:38:51;8.00;99.90
3566;DHT22;1797;51.844;7.684;2022-11-25T06:41:18;8.10;99.90
3566;DHT22;1797;51.844;7.684;2022-11-25T06:43:44;8.10;99.90
3566;DHT22;1797;51.844;7.684;2022-11-25T06:46:14;8.10;99.90
3566;DHT22;1797;51.844;7.684;2022-11-25T06:48:40;8.00;99.90
3566;DHT22;1797;51.844;7.684;2022-11-25T06:51:13;8.10;99.90
3566;DHT22;1797;51.844;7.684;2022-11-25T06:53:39;8.10;99.90
3566;DHT22;1797;51.844;7.684;2022-11-25T06:56:17;8.10;99.90
3566;DHT22;1797;51.844;7.684;2022-11-25T06:58:44;8.10;99.90
3566;DHT22;1797;51.844;7.684;2022-11-25T07:01:20;8.10;99.90
3566;DHT22;1797;51.844;7.684;2022-11-25T07:03:48;8.20;99.90
3566;DHT22;1797;51.844;7.684;2022-11-25T07:06:15;8.20;99.90
3566;DHT22;1797;51.844;7.684;2022-11-25T07:08:41;8.20;99.90
3566;DHT22;1797;51.844;7.684;2022-11-25T07:11:11;8.20;99.90
3566;DHT22;1797;51.844;7.684;2022-11-25T07:13:38;8.20;99.90
3566;DHT22;1797;51.844;7.684;2022-11-25T07:16:05;8.20;99.90
3566;DHT22;1797;51.844;7.684;2022-11-25T07:18:32;8.20;99.90
3566;DHT22;1797;51.844;7.684;2022-11-25T07:23:35;8.20;99.90
3566;DHT22;1797;51.844;7.684;2022-11-25T07:26:07;8.20;99.90
3566;DHT22;1797;51.844;7.684;2022-11-25T07:28:34;8.30;99.90
3566;DHT22;1797;51.844;7.684;2022-11-25T07:31:12;8.30;99.90
3566;DHT22;1797;51.844;7.684;2022-11-25T07:33:38;8.30;99.90
3566;DHT22;1797;51.844;7.684;2022-11-25T07:36:05;8.20;99.90
3566;DHT22;1797;51.844;7.684;2022-11-25T07:38:31;8.20;99.90
3566;DHT22;1797;51.844;7.684;2022-11-25T07:41:11;8.20;99.90
3566;DHT22;1797;51.844;7.684;2022-11-25T07:43:38;8.20;99.90
3566;DHT22;1797;51.844;7.684;2022-11-25T07:46:16;8.20;99.90
3566;DHT22;1797;51.844;7.684;2022-11-25T07:48:42;8.20;99.90
3566;DHT22;1797;51.844;7.684;2022-11-25T07:51:21;8.20;99.90
3566;DHT22;1797;51.844;7.684;2022-11-25T07:53:48;8.20;99.90
3566;DHT22;1797;51.844;7.684;2022-11-25T07:56:16;8.20;99.90
3566;DHT22;1797;51.844;7.684;2022-11-25T07:58:42;8.20;99.90
3566;DHT22;1797;51.844;7.684;2022-11-25T08:01:10;8.20;99.90
3566;DHT22;1797;51.844;7.684;2022-11-25T08:03:39;8.20;99.90
3566;DHT22;1797;51.844;7.684;2022-11-25T08:06:07;8.20;99.90
3566;DHT22;1797;51.844;7.684;2022-11-25T08:08:34;8.20;99.90
3566;DHT22;1797;51.844;7.684;2022-11-25T08:11:00;8.20;99.90
3566;DHT22;1797;51.844;7.684;2022-11-25T08:13:26;8.20;99.90
3566;DHT22;1797;51.844;7.684;2022-11-25T08:15:52;8.20;99.90
3566;DHT22;1797;51.844;7.684;2022-11-25T08:18:17;8.20;99.90
3566;DHT22;1797;51.844;7.684;2022-11-25T08:20:43;8.20;99.90
3566;DHT22;1797;51.844;7.684;2022-11-25T08:23:09;8.30;99.90
3566;DHT22;1797;51.844;7.684;2022-11-25T08:25:42;8.30;99.90
3566;DHT22;1797;51.844;7.684;2022-11-25T08:28:08;8.20;99.90
3566;DHT22;1797;51.844;7.684;2022-11-25T08:30:34;8.20;99.90
3566;DHT22;1797;51.844;7.684;2022-11-25T08:33:00;8.20;99.90
3566;DHT22;1797;51.844;7.684;2022-11-25T08:35:29;8.20;99.90
3566;DHT22;1797;51.844;7.684;2022-11-25T08:37:55;8.20;99.90
3566;DHT22;1797;51.844;7.684;2022-11-25T08:40:20;8.20;99.90
3566;DHT22;1797;51.844;7.684;2022-11-25T08:42:46;8.30;99.90
3566;DHT22;1797;51.844;7.684;2022-11-25T08:45:11;8.20;99.90
3566;DHT22;1797;51.844;7.684;2022-11-25T08:47:37;8.20;99.90
3566;DHT22;1797;51.844;7.684;2022-11-25T08:50:06;8.20;99.90
3566;DHT22;1797;51.844;7.684;2022-11-25T08:52:32;8.20;99.90
3566;DHT22;1797;51.844;7.684;2022-11-25T08:54:57;8.20;99.90
3566;DHT22;1797;51.844;7.684;2022-11-25T08:57:23;8.20;99.90
3566;DHT22;1797;51.844;7.684;2022-11-25T08:59:48;8.20;99.90
3566;DHT22;1797;51.844;7.684;2022-11-25T09:02:15;8.30;99.90
3566;DHT22;1797;51.844;7.684;2022-11-25T09:04:40;8.30;99.90
3566;DHT22;1797;51.844;7.684;2022-11-25T09:07:06;8.30;99.90
3566;DHT22;1797;51.844;7.684;2022-11-25T09:09:32;8.30;99.90
3566;DHT22;1797;51.844;7.684;2022-11-25T09:11:57;8.40;99.90
3566;DHT22;1797;51.844;7.684;2022-11-25T09:14:23;8.30;99.90
3566;DHT22;1797;51.844;7.684;2022-11-25T09:16:48;8.40;99.90
3566;DHT22;1797;51.844;7.684;2022-11-25T09:19:14;8.40;99.90
3566;DHT22;1797;51.844;7.684;2022-11-25T09:21:42;8.40;99.90
3566;DHT22;1797;51.844;7.684;2022-11-25T09:24:08;8.30;99.90
3566;DHT22;1797;51.844;7.684;2022-11-25T09:26:34;8.40;99.90
3566;DHT22;1797;51.844;7.684;2022-11-25T09:29:01;8.40;99.90
3566;DHT22;1797;51.844;7.684;2022-11-25T09:31:26;8.50;99.90
3566;DHT22;1797;51.844;7.684;2022-11-25T09:33:52;8.50;99.90
3566;DHT22;1797;51.844;7.684;2022-11-25T09:36:19;8.70;99.90
3566;DHT22;1797;51.844;7.684;2022-11-25T09:38:45;8.70;99.90
3566;DHT22;1797;51.844;7.684;2022-11-25T09:55:43;9.40;99.90
3566;DHT22;1797;51.844;7.684;2022-11-25T09:58:36;9.60;99.90
3566;DHT22;1797;51.844;7.684;2022-11-25T10:01:11;9.70;99.90
3566;DHT22;1797;51.844;7.684;2022-11-25T10:03:40;9.90;99.90
3566;DHT22;1797;51.844;7.684;2022-11-25T10:08:47;10.00;99.90
3566;DHT22;1797;51.844;7.684;2022-11-25T10:19:23;10.30;99.90
3566;DHT22;1797;51.844;7.684;2022-11-25T10:21:50;10.40;99.90
3566;DHT22;1797;51.844;7.684;2022-11-25T10:24:17;10.50;99.90
3566;DHT22;1797;51.844;7.684;2022-11-25T10:26:47;10.60;99.90
3566;DHT22;1797;51.844;7.684;2022-11-25T10:31:40;10.70;99.90
3566;DHT22;1797;51.844;7.684;2022-11-25T10:36:53;10.90;99.90
3566;DHT22;1797;51.844;7.684;2022-11-25T10:39:22;11.00;1.00
3566;DHT22;1797;51.844;7.684;2022-11-25T10:41:55;11.00;99.90
3566;DHT22;1797;51.844;7.684;2022-11-25T10:44:30;11.00;1.00
3566;DHT22;1797;51.844;7.684;2022-11-25T10:49:46;10.90;1.00
3566;DHT22;1797;51.844;7.684;2022-11-25T10:52:20;11.00;1.00
3566;DHT22;1797;51.844;7.684;2022-11-25T10:55:13;10.90;1.00
3566;DHT22;1797;51.844;7.684;2022-11-25T10:57:40;11.00;1.00
3566;DHT22;1797;51.844;7.684;2022-11-25T11:00:22;11.00;99.90
3566;DHT22;1797;51.844;7.684;2022-11-25T11:02:48;11.00;99.90
3566;DHT22;1797;51.844;7.684;2022-11-25T11:07:47;11.10;42.60
3566;DHT22;1797;51.844;7.684;2022-11-25T11:10:23;11.10;6.00
3566;DHT22;1797;51.844;7.684;2022-11-25T11:21:05;11.60;1.00
3566;DHT22;1797;51.844;7.684;2022-11-25T11:23:48;11.60;1.00
3566;DHT22;1797;51.844;7.684;2022-11-25T11:26:30;11.60;1.00
3566;DHT22;1797;51.844;7.684;2022-11-25T11:29:01;11.70;1.00
3566;DHT22;1797;51.844;7.684;2022-11-25T11:31:33;11.80;99.90
3566;DHT22;1797;51.844;7.684;2022-11-25T11:37:31;11.80;99.90
3566;DHT22;1797;51.844;7.684;2022-11-25T11:40:20;11.90;99.90
3566;DHT22;1797;51.844;7.684;2022-11-25T11:52:03;11.80;99.90
3566;DHT22;1797;51.844;7.684;2022-11-25T11:54:35;11.70;99.90
3566;DHT22;1797;51.844;7.684;2022-11-25T11:57:28;11.80;99.90
3566;DHT22;1797;51.844;7.684;2022-11-25T12:00:05;11.70;93.80
3566;DHT22;1797;51.844;7.684;2022-11-25T12:05:18;11.60;93.70
3566;DHT22;1797;51.844;7.684;2022-11-25T12:08:15;11.50;99.90
3566;DHT22;1797;51.844;7.684;2022-11-25T12:10:50;11.60;99.90
3566;DHT22;1797;51.844;7.684;2022-11-25T12:13:36;11.70;99.90
3566;DHT22;1797;51.844;7.684;2022-11-25T12:16:18;11.80;99.90
3566;DHT22;1797;51.844;7.684;2022-11-25T12:19:09;11.90;73.90
3566;DHT22;1797;51.844;7.684;2022-11-25T12:21:59;12.00;24.20
3566;DHT22;1797;51.844;7.684;2022-11-25T12:27:18;12.10;1.00
3566;DHT22;1797;51.844;7.684;2022-11-25T12:38:10;12.10;99.90
3566;DHT22;1797;51.844;7.684;2022-11-25T12:41:04;12.20;65.60
3566;DHT22;1797;51.844;7.684;2022-11-25T12:43:55;12.30;99.30
3566;DHT22;1797;51.844;7.684;2022-11-25T12:46:36;12.40;85.00
3566;DHT22;1797;51.844;7.684;2022-11-25T12:49:05;12.40;99.90
3566;DHT22;1797;51.844;7.684;2022-11-25T13:17:02;11.60;99.90
3566;DHT22;1797;51.844;7.684;2022-11-25T13:19:28;11.60;99.90
3566;DHT22;1797;51.844;7.684;2022-11-25T13:24:42;11.60;99.90
3566;DHT22;1797;51.844;7.684;2022-11-25T13:28:22;11.50;99.90
3566;DHT22;1797;51.844;7.684;2022-11-25T13:33:50;11.30;99.90
3566;DHT22;1797;51.844;7.684;2022-11-25T13:38:37;11.30;99.90
3566;DHT22;1797;51.844;7.684;2022-11-25T13:41:34;11.30;99.90
3566;DHT22;1797;51.844;7.684;2022-11-25T13:46:44;11.30;99.90
3566;DHT22;1797;51.844;7.684;2022-11-25T13:52:02;11.20;99.90
3566;DHT22;1797;51.844;7.684;2022-11-25T13:54:55;11.30;99.90
3566;DHT22;1797;51.844;7.684;2022-11-25T13:57:26;11.30;99.90
3566;DHT22;1797;51.844;7.684;2022-11-25T13:59:54;11.30;99.90
3566;DHT22;1797;51.844;7.684;2022-11-25T14:02:28;11.30;99.90
3566;DHT22;1797;51.844;7.684;2022-11-25T14:24:41;11.00;99.90
3566;DHT22;1797;51.844;7.684;2022-11-25T14:27:18;11.00;1.00
3566;DHT22;1797;51.844;7.684;2022-11-25T14:30:04;10.90;1.00
3566;DHT22;1797;51.844;7.684;2022-11-25T14:32:51;10.90;1.00
3566;DHT22;1797;51.844;7.684;2022-11-25T14:35:31;10.90;1.00
3566;DHT22;1797;51.844;7.684;2022-11-25T14:38:18;10.90;1.00
3566;DHT22;1797;51.844;7.684;2022-11-25T14:41:07;10.90;1.00
3566;DHT22;1797;51.844;7.684;2022-11-25T14:43:40;11.00;1.00
3566;DHT22;1797;51.844;7.684;2022-11-25T14:46:18;11.00;1.00
3566;DHT22;1797;51.844;7.684;2022-11-25T14:49:01;11.00;1.00
3566;DHT22;1797;51.844;7.684;2022-11-25T14:51:33;10.90;1.00
3566;DHT22;1797;51.844;7.684;2022-11-25T14:53:59;10.90;1.00
3566;DHT22;1797;51.844;7.684;2022-11-25T14:56:30;10.90;1.00
3566;DHT22;1797;51.844;7.684;2022-11-25T14:58:58;11.00;1.00
3566;DHT22;1797;51.844;7.684;2022-11-25T15:01:29;10.90;1.00
3566;DHT22;1797;51.844;7.684;2022-11-25T15:06:36;10.90;1.00
3566;DHT22;1797;51.844;7.684;2022-11-25T15:09:03;10.90;1.00
3566;DHT22;1797;51.844;7.684;2022-11-25T15:11:31;10.80;1.00
3566;DHT22;1797;51.844;7.684;2022-11-25T15:14:03;10.80;1.00
3566;DHT22;1797;51.844;7.684;2022-11-25T15:16:39;10.70;1.00
3566;DHT22;1797;51.844;7.684;2022-11-25T15:19:15;10.70;1.00
3566;DHT22;1797;51.844;7.684;2022-11-25T15:21:42;10.70;1.00
3566;DHT22;1797;51.844;7.684;2022-11-25T15:24:41;10.60;1.00
3566;DHT22;1797;51.844;7.684;2022-11-25T15:27:34;10.60;1.00
3566;DHT22;1797;51.844;7.684;2022-11-25T15:30:19;10.60;1.00
3566;DHT22;1797;51.844;7.684;2022-11-25T15:32:45;10.50;1.00
3566;DHT22;1797;51.844;7.684;2022-11-25T15:35:17;10.40;1.00
3566;DHT22;1797;51.844;7.684;2022-11-25T15:37:43;10.30;1.00
3566;DHT22;1797;51.844;7.684;2022-11-25T15:42:59;10.20;99.90
3566;DHT22;1797;51.844;7.684;2022-11-25T15:45:28;10.10;99.90
3566;DHT22;1797;51.844;7.684;2022-11-25T15:47:55;10.00;99.90
3566;DHT22;1797;51.844;7.684;2022-11-25T15:50:23;9.90;99.90
3566;DHT22;1797;51.844;7.684;2022-11-25T15:52:52;9.90;99.90
3566;DHT22;1797;51.844;7.684;2022-11-25T15:55:27;9.70;99.90
3566;DHT22;1797;51.844;7.684;2022-11-25T15:58:06;9.70;99.90
3566;DHT22;1797;51.844;7.684;2022-11-25T16:00:36;9.60;1.00
3566;DHT22;1797;51.844;7.684;2022-11-25T16:03:02;9.60;1.00
3566;DHT22;1797;51.844;7.684;2022-11-25T16:05:33;9.60;1.00
3566;DHT22;1797;51.844;7.684;2022-11-25T16:13:25;9.60;1.00
3566;DHT22;1797;51.844;7.684;2022-11-25T16:21:17;9.60;1.00
3566;DHT22;1797;51.844;7.684;2022-11-25T16:23:50;9.60;1.00
3566;DHT22;1797;51.844;7.684;2022-11-25T16:26:27;9.60;1.00
3566;DHT22;1797;51.844;7.684;2022-11-25T16:28:55;9.50;1.00
3566;DHT22;1797;51.844;7.684;2022-11-25T16:31:22;9.50;1.00
3566;DHT22;1797;51.844;7.684;2022-11-25T16:33:49;9.50;99.90
3566;DHT22;1797;51.844;7.684;2022-11-25T16:36:17;9.50;99.90
3566;DHT22;1797;51.844;7.684;2022-11-25T16:38:42;9.50;99.90
3566;DHT22;1797;51.844;7.684;2022-11-25T16:41:18;9.50;1.00
3566;DHT22;1797;51.844;7.684;2022-11-25T16:43:45;9.50;99.90
3566;DHT22;1797;51.844;7.684;2022-11-25T16:46:15;9.60;99.90
3566;DHT22;1797;51.844;7.684;2022-11-25T16:48:42;9.60;99.90
3566;DHT22;1797;51.844;7.684;2022-11-25T16:51:13;9.60;99.90
3566;DHT22;1797;51.844;7.684;2022-11-25T16:53:39;9.60;99.90
3566;DHT22;1797;51.844;7.684;2022-11-25T16:56:07;9.60;99.90
3566;DHT22;1797;51.844;7.684;2022-11-25T16:58:34;9.60;99.90
3566;DHT22;1797;51.844;7.684;2022-11-25T17:00:59;9.60;99.90
3566;DHT22;1797;51.844;7.684;2022-11-25T17:03:25;9.50;99.90
3566;DHT22;1797;51.844;7.684;2022-11-25T17:05:54;9.50;99.90
3566;DHT22;1797;51.844;7.684;2022-11-25T17:08:20;9.50;99.90
3566;DHT22;1797;51.844;7.684;2022-11-25T17:10:46;9.50;58.20
3566;DHT22;1797;51.844;7.684;2022-11-25T17:13:19;9.50;56.90
3566;DHT22;1797;51.844;7.684;2022-11-25T17:15:48;9.50;99.90
3566;DHT22;1797;51.844;7.684;2022-11-25T17:18:15;9.40;99.90
3566;DHT22;1797;51.844;7.684;2022-11-25T17:20:43;9.40;99.90
3566;DHT22;1797;51.844;7.684;2022-11-25T17:23:14;9.40;99.90
3566;DHT22;1797;51.844;7.684;2022-11-25T17:25:42;9.40;1.00
3566;DHT22;1797;51.844;7.684;2022-11-25T17:28:15;9.40;99.90
3566;DHT22;1797;51.844;7.684;2022-11-25T17:30:43;9.40;1.00
3566;DHT22;1797;51.844;7.684;2022-11-25T17:33:17;9.40;1.00
3566;DHT22;1797;51.844;7.684;2022-11-25T17:35:44;9.40;1.00
3566;DHT22;1797;51.844;7.684;2022-11-25T17:38:16;9.40;99.90
3566;DHT22;1797;51.844;7.684;2022-11-25T17:40:42;9.30;1.00
3566;DHT22;1797;51.844;7.684;2022-11-25T17:43:17;9.20;1.00
3566;DHT22;1797;51.844;7.684;2022-11-25T17:45:44;9.10;1.00
3566;DHT22;1797;51.844;7.684;2022-11-25T17:48:15;9.00;1.00
3566;DHT22;1797;51.844;7.684;2022-11-25T17:50:41;9.00;99.90
3566;DHT22;1797;51.844;7.684;2022-11-25T17:53:07;8.90;1.00
3566;DHT22;1797;51.844;7.684;2022-11-25T17:55:35;8.80;99.90
3566;DHT22;1797;51.844;7.684;2022-11-25T17:58:01;8.80;1.00
3566;DHT22;1797;51.844;7.684;2022-11-25T18:00:27;8.80;1.00
3566;DHT22;1797;51.844;7.684;2022-11-25T18:02:53;8.70;99.90
3566;DHT22;1797;51.844;7.684;2022-11-25T18:05:23;8.70;1.00
3566;DHT22;1797;51.844;7.684;2022-11-25T18:07:49;8.70;1.00
3566;DHT22;1797;51.844;7.684;2022-11-25T18:10:17;8.70;1.00
3566;DHT22;1797;51.844;7.684;2022-11-25T18:12:45;8.70;1.00
3566;DHT22;1797;51.844;7.684;2022-11-25T18:15:26;8.80;99.90
3566;DHT22;1797;51.844;7.684;2022-11-25T18:18:04;8.70;1.00
3566;DHT22;1797;51.844;7.684;2022-11-25T18:20:30;8.80;99.90
3566;DHT22;1797;51.844;7.684;2022-11-25T18:22:57;8.80;99.90
3566;DHT22;1797;51.844;7.684;2022-11-25T18:25:26;8.80;1.00
3566;DHT22;1797;51.844;7.684;2022-11-25T18:27:53;8.80;99.90
3566;DHT22;1797;51.844;7.684;2022-11-25T18:30:27;8.80;1.00
3566;DHT22;1797;51.844;7.684;2022-11-25T18:32:54;8.80;1.00
3566;DHT22;1797;51.844;7.684;2022-11-25T18:35:29;8.90;99.90
3566;DHT22;1797;51.844;7.684;2022-11-25T18:37:55;8.80;99.90
3566;DHT22;1797;51.844;7.684;2022-11-25T18:40:22;8.80;99.90
3566;DHT22;1797;51.844;7.684;2022-11-25T18:42:52;8.70;99.90
3566;DHT22;1797;51.844;7.684;2022-11-25T18:45:24;8.80;96.30
3566;DHT22;1797;51.844;7.684;2022-11-25T18:47:50;8.80;99.90
3566;DHT22;1797;51.844;7.684;2022-11-25T18:50:21;8.80;99.90
3566;DHT22;1797;51.844;7.684;2022-11-25T18:52:47;8.90;99.90
3566;DHT22;1797;51.844;7.684;2022-11-25T18:55:15;8.90;1.00
3566;DHT22;1797;51.844;7.684;2022-11-25T18:57:43;8.90;1.00
3566;DHT22;1797;51.844;7.684;2022-11-25T19:00:19;8.90;1.00
3566;DHT22;1797;51.844;7.684;2022-11-25T19:02:45;8.90;99.90
3566;DHT22;1797;51.844;7.684;2022-11-25T19:05:20;8.90;12.30
3566;DHT22;1797;51.844;7.684;2022-11-25T19:07:47;8.90;99.90
3566;DHT22;1797;51.844;7.684;2022-11-25T19:10:14;8.90;99.90